Time;durP1;ratioP1;P1;durP2;ratioP2;P2;SDS_P1;SDS_P2;PMS_P1;PMS_P2;Temp;Humidity;BMP_temperature;BMP_pressure;BME280_temperature;BME280_humidity;BME280_pressure;Samples;Min_cycle;Max_cycle;Signal;HPM_P1;HPM_P2
2023/10/05 00:02:08;;;;;;;4.32;2.15;;;;;;;15.79;50.76;100572.69;4382684;32;33448;-68
2023/10/05 00:04:41;;;;;;;3.25;1.50;;;;;;;15.69;51.04;100571.69;4367319;32;33771;-72
2023/10/05 00:07:17;;;;;;;2.00;1.40;;;;;;;15.74;50.66;100582.13;4370610;32;34813;-72
2023/10/05 00:09:45;;;;;;;1.57;0.97;;;;;;;15.67;51.04;100586.34;4363774;32;33923;-72
2023/10/05 00:12:20;;;;;;;2.45;1.85;;;;;;;15.79;50.73;100579.87;4365589;32;33228;-72
2023/10/05 00:14:55;;;;;;;0.93;0.73;;;;;;;15.82;50.60;100583.19;4361090;32;33557;-72
2023/10/05 00:17:23;;;;;;;;;;;;;;;15.76;50.81;100591.81;4366534;32;34311;-70
2023/10/05 00:19:50;;;;;;;0.73;0.65;;;;;;;15.75;50.85;100589.22;4365511;32;34847;-71
2023/10/05 00:22:20;;;;;;;1.50;1.02;;;;;;;15.67;51.23;100583.63;4372707;32;33534;-72
2023/10/05 00:24:49;;;;;;;1.92;1.00;;;;;;;15.72;51.15;100589.50;4372330;32;33952;-73
2023/10/05 00:27:17;;;;;;;3.12;1.77;;;;;;;15.78;50.95;100586.28;4363074;32;34070;-69
2023/10/05 00:29:53;;;;;;;2.92;1.42;;;;;;;15.79;50.95;100587.97;4364739;32;34450;-68
2023/10/05 00:35:24;;;;;;;5.75;2.70;;;;;;;15.94;51.04;100580.47;4342882;33;33838;-69
2023/10/05 00:37:58;;;;;;;5.40;2.42;;;;;;;15.93;50.81;100578.75;4339457;33;35168;-69
2023/10/05 00:40:42;;;;;;;2.65;1.15;;;;;;;15.76;51.71;100580.16;4343430;33;34363;-68
2023/10/05 00:45:47;;;;;;;1.73;1.17;;;;;;;15.42;52.38;100577.50;4337066;32;33400;-72
2023/10/05 00:48:35;;;;;;;2.97;1.10;;;;;;;15.37;52.50;100574.31;4326518;33;35549;-72
2023/10/05 00:51:17;;;;;;;1.55;0.95;;;;;;;15.26;53.04;100574.34;4341918;32;33612;-72
2023/10/05 00:53:47;;;;;;;0.65;0.65;;;;;;;15.31;52.86;100572.13;4342485;32;34010;-72
2023/10/05 00:56:15;;;;;;;4.47;2.28;;;;;;;15.41;52.63;100573.13;4324791;32;33799;-72
2023/10/05 00:58:50;;;;;;;2.40;0.85;;;;;;;15.21;53.09;100572.00;4341338;33;34056;-72
2023/10/05 01:01:25;;;;;;;1.12;0.75;;;;;;;15.30;52.83;100570.41;4344619;32;34127;-73
2023/10/05 01:06:48;;;;;;;3.35;1.17;;;;;;;15.03;54.03;100565.44;4345235;32;34496;-72
2023/10/05 01:14:51;;;;;;;1.17;1.08;;;;;;;15.15;53.51;100559.03;4378194;32;34285;-70
2023/10/05 01:17:25;;;;;;;2.03;1.10;;;;;;;14.99;54.39;100562.13;4388396;32;33574;-70
2023/10/05 01:19:58;;;;;;;1.48;1.05;;;;;;;15.12;53.92;100553.91;4382023;32;34773;-70
2023/10/05 01:22:38;;;;;;;2.05;1.20;;;;;;;15.15;54.03;100553.62;4380136;32;34409;-70
2023/10/05 01:25:08;;;;;;;2.08;1.35;;;;;;;15.10;54.28;100556.72;4384186;32;33428;-69
2023/10/05 01:27:36;;;;;;;1.08;0.98;;;;;;;15.05;54.61;100544.59;4389157;32;34392;-70
2023/10/05 01:30:04;;;;;;;4.47;0.95;;;;;;;15.14;54.12;100555.47;4380750;32;35458;-69
2023/10/05 01:32:35;;;;;;;2.28;1.62;;;;;;;15.07;54.13;100554.25;4381285;32;34435;-70
2023/10/05 01:35:08;;;;;;;1.37;0.98;;;;;;;15.11;54.09;100549.47;4387427;32;33757;-69
2023/10/05 01:37:45;;;;;;;2.80;0.90;;;;;;;15.15;54.04;100545.53;4384423;32;32373;-69
2023/10/05 01:42:51;;;;;;;12.32;4.40;;;;;;;15.08;54.35;100538.94;4384420;32;33842;-70
2023/10/05 01:45:29;;;;;;;5.70;2.20;;;;;;;15.18;54.15;100528.25;4386185;32;33414;-70
2023/10/05 01:48:12;;;;;;;4.50;1.75;;;;;;;15.33;53.75;100535.97;4388643;32;33694;-69
2023/10/05 01:50:40;;;;;;;2.53;1.08;;;;;;;15.43;53.55;100543.28;4377009;32;33717;-69
2023/10/05 01:53:08;;;;;;;2.58;1.40;;;;;;;15.62;52.72;100532.69;4379619;32;34708;-69
2023/10/05 01:55:39;;;;;;;3.62;1.73;;;;;;;15.69;52.51;100538.47;4365379;32;34728;-69
2023/10/05 01:58:08;;;;;;;4.12;1.35;;;;;;;15.63;52.54;100533.53;4379712;32;34651;-69
2023/10/05 02:00:38;;;;;;;3.20;1.58;;;;;;;15.66;52.44;100527.91;4385354;32;33784;-69
2023/10/05 02:03:11;;;;;;;1.25;0.88;;;;;;;15.77;52.14;100538.69;4379896;32;34480;-70
2023/10/05 02:05:39;;;;;;;3.28;1.62;;;;;;;15.83;52.09;100533.62;4376978;32;34304;-68
2023/10/05 02:08:08;;;;;;;3.30;1.70;;;;;;;15.91;51.62;100535.69;4381865;32;33930;-69
2023/10/05 02:10:45;;;;;;;0.93;0.85;;;;;;;15.92;51.55;100523.03;4382481;32;34061;-68
2023/10/05 02:13:13;;;;;;;11.12;2.72;;;;;;;15.95;51.21;100520.06;4381290;32;34273;-68
2023/10/05 02:15:42;;;;;;;3.53;1.65;;;;;;;15.92;51.39;100517.63;4389515;32;33198;-69
2023/10/05 02:18:18;;;;;;;4.93;3.03;;;;;;;15.75;51.52;100513.66;4380626;32;33654;-68
2023/10/05 02:20:50;;;;;;;2.25;1.65;;;;;;;15.78;51.60;100510.72;4378399;32;35309;-68
2023/10/05 02:23:29;;;;;;;1.42;1.23;;;;;;;15.70;51.79;100507.81;4390013;32;33568;-68
2023/10/05 02:26:00;;;;;;;3.50;1.73;;;;;;;15.44;52.57;100510.81;4383499;32;33642;-68
2023/10/05 02:28:27;;;;;;;2.00;1.23;;;;;;;15.65;51.69;100499.22;4382138;32;34607;-68
2023/10/05 02:30:59;;;;;;;1.45;1.00;;;;;;;15.62;51.76;100503.00;4382954;32;33963;-68
2023/10/05 02:33:30;;;;;;;1.08;0.73;;;;;;;15.64;51.39;100501.06;4389638;32;33618;-68
2023/10/05 02:36:11;;;;;;;2.65;0.95;;;;;;;15.39;52.28;100504.94;4378241;32;34128;-68
2023/10/05 02:38:39;;;;;;;4.68;1.75;;;;;;;15.54;51.74;100508.22;4386552;32;33941;-68
2023/10/05 02:41:08;;;;;;;4.40;1.48;;;;;;;15.26;52.30;100502.38;4388385;32;33975;-69
2023/10/05 02:43:39;;;;;;;1.45;1.30;;;;;;;15.41;52.08;100502.97;4391399;32;33492;-68
2023/10/05 02:46:11;;;;;;;6.53;3.72;;;;;;;15.37;52.28;100501.50;4384606;32;33571;-72
2023/10/05 02:48:41;;;;;;;3.30;2.05;;;;;;;15.34;52.39;100501.75;4381560;32;33587;-72
2023/10/05 02:51:13;;;;;;;1.80;1.37;;;;;;;15.45;52.00;100499.03;4389119;32;33939;-74
2023/10/05 02:53:41;;;;;;;2.33;1.48;;;;;;;15.56;51.79;100506.22;4390406;32;33916;-74
2023/10/05 02:56:28;;;;;;;4.47;1.75;;;;;;;15.62;51.85;100494.91;4386441;32;34405;-74
2023/10/05 02:59:02;;;;;;;4.95;1.70;;;;;;;15.65;52.00;100500.06;4383259;32;33284;-74
2023/10/05 03:01:32;;;;;;;3.62;1.75;;;;;;;15.73;51.62;100507.53;4384401;32;34891;-68
2023/10/05 03:04:04;;;;;;;2.45;1.27;;;;;;;15.76;51.23;100508.16;4382137;32;34922;-73
2023/10/05 03:06:33;;;;;;;5.37;1.58;;;;;;;15.71;51.13;100506.81;4378076;32;32876;-72
2023/10/05 03:09:07;;;;;;;3.37;1.65;;;;;;;15.61;51.19;100509.41;4391362;32;34521;-72
2023/10/05 03:11:39;;;;;;;2.27;0.97;;;;;;;15.26;52.31;100513.19;4391186;32;34493;-68
2023/10/05 03:14:11;;;;;;;0.88;0.80;;;;;;;15.36;51.96;100508.72;4386032;32;34712;-74
2023/10/05 03:16:48;;;;;;;1.85;1.12;;;;;;;15.35;52.01;100508.88;4384941;32;34134;-71
2023/10/05 03:19:22;;;;;;;0.65;0.62;;;;;;;15.35;52.09;100506.19;4363008;32;33667;-72
2023/10/05 03:22:04;;;;;;;0.98;0.90;;;;;;;15.24;52.02;100509.75;4362657;32;34640;-72
2023/10/05 03:24:33;;;;;;;1.10;0.93;;;;;;;15.23;51.43;100516.13;4362072;32;33769;-71
2023/10/05 03:27:07;;;;;;;2.10;1.10;;;;;;;15.18;51.50;100514.78;4358962;32;33378;-73
2023/10/05 03:29:35;;;;;;;2.72;0.95;;;;;;;15.07;51.49;100512.97;4361073;32;33604;-72
2023/10/05 03:32:13;;;;;;;0.35;0.35;;;;;;;15.03;51.62;100511.50;4358841;32;35343;-73
2023/10/05 03:35:22;;;;;;;1.35;0.85;;;;;;;14.96;51.79;100516.56;4358949;32;34925;-70
2023/10/05 03:37:39;;;;;;;1.17;0.93;;;;;;;14.84;52.12;100512.16;4357442;32;33320;-73
2023/10/05 03:40:19;;;;;;;1.55;1.33;;;;;;;14.68;52.30;100515.22;4367351;32;34550;-71
2023/10/05 03:42:50;;;;;;;4.10;1.12;;;;;;;14.61;52.33;100524.75;4366679;32;34336;-70
2023/10/05 03:45:17;;;;;;;0.82;0.60;;;;;;;14.64;52.04;100527.22;4359302;32;34133;-67
2023/10/05 03:47:45;;;;;;;1.10;0.52;;;;;;;14.59;52.14;100527.56;4359644;32;34698;-70
2023/10/05 03:50:19;;;;;;;2.92;1.37;;;;;;;14.42;52.70;100536.09;4373683;32;34734;-69
2023/10/05 03:52:47;;;;;;;3.42;1.85;;;;;;;14.03;55.35;100534.63;4385373;32;33908;-69
2023/10/05 03:55:18;;;;;;;4.62;1.35;;;;;;;14.30;53.63;100515.50;4385114;32;33648;-69
2023/10/05 03:57:48;;;;;;;2.08;1.33;;;;;;;14.41;53.42;100510.12;4387250;32;34228;-71
2023/10/05 04:02:54;;;;;;;1.48;0.75;;;;;;;14.57;52.93;100505.25;4386405;32;34959;-70
2023/10/05 04:05:23;;;;;;;1.75;0.93;;;;;;;14.69;52.75;100506.13;4380568;32;34802;-70
2023/10/05 04:07:52;;;;;;;3.25;1.12;;;;;;;14.81;52.64;100507.84;4383832;32;33080;-73
2023/10/05 04:10:23;;;;;;;8.15;1.35;;;;;;;14.98;52.48;100511.03;4386545;32;33716;-73
2023/10/05 04:12:53;;;;;;;4.37;1.48;;;;;;;15.14;51.73;100520.41;4387060;32;33768;-74
2023/10/05 04:15:20;;;;;;;2.47;1.15;;;;;;;15.23;51.27;100523.38;4386847;32;34923;-75
2023/10/05 04:17:49;;;;;;;1.30;1.02;;;;;;;15.30;51.36;100524.56;4383624;32;34413;-74
2023/10/05 04:20:19;;;;;;;1.65;0.90;;;;;;;15.23;51.12;100528.75;4386973;32;34611;-72
2023/10/05 04:22:49;;;;;;;4.72;2.20;;;;;;;15.25;51.20;100530.34;4378706;32;33892;-74
2023/10/05 04:25:16;;;;;;;1.65;0.93;;;;;;;15.31;50.68;100523.56;4384422;32;33212;-73
2023/10/05 04:27:48;;;;;;;2.72;1.08;;;;;;;15.34;50.59;100528.72;4382227;32;33642;-70
2023/10/05 04:30:21;;;;;;;2.25;1.40;;;;;;;15.36;50.25;100527.63;4376445;32;33962;-71
2023/10/05 04:32:49;;;;;;;3.00;1.35;;;;;;;15.32;50.25;100528.87;4376434;32;34159;-72
2023/10/05 04:35:23;;;;;;;4.30;2.05;;;;;;;15.21;50.46;100528.87;4380457;32;34004;-71
2023/10/05 04:37:51;;;;;;;2.95;1.45;;;;;;;15.14;50.36;100531.22;4386456;32;33506;-68
2023/10/05 04:40:22;;;;;;;0.68;0.68;;;;;;;15.10;50.05;100532.44;4395510;32;34661;-69
2023/10/05 04:43:04;;;;;;;0.77;0.73;;;;;;;14.99;50.17;100523.50;4386254;32;33990;-70
2023/10/05 04:45:32;;;;;;;10.55;1.90;;;;;;;14.91;50.49;100543.00;4376136;32;34489;-70
2023/10/05 04:47:59;;;;;;;2.12;0.93;;;;;;;14.77;50.88;100541.41;4385860;32;35097;-71
2023/10/05 04:50:27;;;;;;;2.10;0.93;;;;;;;14.58;51.49;100549.25;4388637;32;33537;-71
2023/10/05 04:52:55;;;;;;;1.67;1.05;;;;;;;14.42;52.05;100546.88;4388904;32;34851;-72
2023/10/05 04:55:30;;;;;;;1.08;0.98;;;;;;;14.38;52.14;100543.56;4378240;32;33741;-72
2023/10/05 05:08:27;;;;;;;1.52;1.05;;;;;;;14.69;52.02;100549.25;4385306;32;34667;-68
2023/10/05 05:10:55;;;;;;;1.90;1.08;;;;;;;14.84;51.64;100547.19;4388259;32;34753;-68
2023/10/05 05:13:23;;;;;;;1.12;0.75;;;;;;;14.91;51.50;100553.78;4387379;32;33706;-69
2023/10/05 05:15:51;;;;;;;2.53;1.45;;;;;;;14.94;51.83;100561.63;4392139;32;35099;-69
2023/10/05 05:18:19;;;;;;;1.55;0.95;;;;;;;15.13;51.59;100561.84;4380757;32;34148;-69
2023/10/05 05:20:47;;;;;;;1.12;1.02;;;;;;;15.19;50.45;100563.22;4384551;32;33652;-69
2023/10/05 05:23:16;;;;;;;7.00;1.42;;;;;;;15.19;50.11;100565.91;4384657;32;33860;-72
2023/10/05 05:25:51;;;;;;;1.35;0.90;;;;;;;15.07;50.53;100556.09;4376704;32;35705;-71
2023/10/05 05:28:18;;;;;;;2.05;1.37;;;;;;;14.93;50.84;100561.72;4389408;32;32193;-72
2023/10/05 05:30:47;;;;;;;3.10;1.37;;;;;;;14.90;50.88;100557.47;4388034;32;33517;-69
2023/10/05 05:33:17;;;;;;;1.87;0.73;;;;;;;14.83;51.11;100551.72;4390079;32;34096;-73
2023/10/05 05:35:45;;;;;;;1.45;0.95;;;;;;;14.83;51.25;100564.31;4356330;32;32704;-72
2023/10/05 05:38:13;;;;;;;2.42;0.82;;;;;;;14.79;51.67;100581.72;4356992;32;33377;-73
2023/10/05 05:40:40;;;;;;;0.80;0.73;;;;;;;14.67;52.01;100578.16;4353615;32;33495;-74
2023/10/05 05:43:10;;;;;;;1.08;0.77;;;;;;;14.67;51.90;100575.47;4355157;32;35201;-74
2023/10/05 05:45:44;;;;;;;0.77;0.77;;;;;;;14.71;51.57;100568.00;4359022;32;35205;-73
2023/10/05 05:48:15;;;;;;;2.60;1.27;;;;;;;14.91;51.31;100569.97;4357855;32;32975;-72
2023/10/05 05:50:43;;;;;;;1.10;0.88;;;;;;;15.19;50.88;100562.34;4358160;32;33808;-73
2023/10/05 05:53:11;;;;;;;2.50;1.80;;;;;;;15.28;51.06;100562.47;4359160;32;34897;-73
2023/10/05 05:55:52;;;;;;;2.30;0.73;;;;;;;15.29;51.37;100560.62;4355669;32;34419;-72
2023/10/05 05:58:20;;;;;;;3.30;1.75;;;;;;;15.59;51.07;100566.19;4359080;32;33109;-70
2023/10/05 06:00:48;;;;;;;8.20;1.48;;;;;;;15.94;50.38;100562.41;4346460;32;35200;-72
2023/10/05 06:03:16;;;;;;;4.40;1.58;;;;;;;16.91;48.27;100559.50;4341278;32;34997;-72
2023/10/05 06:05:44;;;;;;;3.78;1.50;;;;;;;18.04;44.93;100556.47;4332623;32;34767;-73
2023/10/05 06:08:12;;;;;;;6.12;2.60;;;;;;;17.99;45.13;100561.50;4374912;32;33293;-73
2023/10/05 06:10:43;;;;;;;10.68;1.73;;;;;;;18.03;45.00;100555.63;4373633;32;33612;-74
2023/10/05 06:13:11;;;;;;;5.43;2.78;;;;;;;18.26;44.38;100569.72;4370847;32;34262;-71
2023/10/05 06:15:40;;;;;;;8.68;1.52;;;;;;;17.90;45.28;100558.63;4375470;32;34094;-73
2023/10/05 06:18:08;;;;;;;7.53;2.08;;;;;;;17.52;46.23;100547.72;4374779;32;33455;-74
2023/10/05 06:20:35;;;;;;;2.65;1.15;;;;;;;17.35;46.96;100542.00;4376304;32;34248;-73
2023/10/05 06:23:05;;;;;;;3.80;1.87;;;;;;;17.22;47.26;100544.09;4366424;32;34907;-78
2023/10/05 06:25:33;;;;;;;2.75;1.58;;;;;;;17.10;47.95;100545.22;4372821;32;33769;-70
2023/10/05 06:28:00;;;;;;;2.28;1.27;;;;;;;17.05;48.01;100544.78;4366250;32;33342;-74
2023/10/05 06:30:28;;;;;;;2.10;1.27;;;;;;;17.05;48.00;100545.63;4381750;32;34043;-74
2023/10/05 06:32:57;;;;;;;1.67;1.12;;;;;;;17.13;47.82;100544.94;4370609;32;33894;-73
2023/10/05 06:35:24;;;;;;;3.30;1.77;;;;;;;17.19;47.70;100547.09;4370913;32;33896;-72
2023/10/05 06:37:52;;;;;;;3.20;2.00;;;;;;;17.19;47.57;100547.09;4373035;32;31651;-74
2023/10/05 06:40:22;;;;;;;3.30;1.35;;;;;;;17.28;47.30;100548.13;4363685;32;34601;-74
2023/10/05 06:42:51;;;;;;;3.28;1.75;;;;;;;17.34;47.12;100545.72;4368587;32;34058;-73
2023/10/05 06:45:23;;;;;;;2.53;1.05;;;;;;;17.45;46.75;100542.88;4369558;32;33699;-74
2023/10/05 06:47:51;;;;;;;2.92;1.27;;;;;;;17.70;45.99;100557.72;4362150;32;34096;-74
2023/10/05 06:50:21;;;;;;;3.20;1.33;;;;;;;17.76;45.18;100552.75;4371175;32;33822;-73
2023/10/05 06:52:48;;;;;;;7.15;2.40;;;;;;;17.82;45.60;100544.97;4369387;32;33943;-74
2023/10/05 06:55:17;;;;;;;2.92;2.10;;;;;;;17.93;46.13;100542.09;4374437;32;35004;-73
2023/10/05 06:57:46;;;;;;;1.85;1.20;;;;;;;18.12;45.99;100543.09;4368994;32;33333;-74
2023/10/05 07:00:20;;;;;;;6.57;1.67;;;;;;;18.33;45.79;100548.31;4372466;32;35055;-73
2023/10/05 07:03:01;;;;;;;2.80;1.75;;;;;;;18.43;45.17;100546.47;4380406;32;35029;-73
2023/10/05 07:05:28;;;;;;;2.72;1.42;;;;;;;18.60;44.95;100548.41;4385254;32;35665;-73
2023/10/05 07:07:56;;;;;;;3.15;1.48;;;;;;;18.65;44.44;100549.81;4386044;32;33398;-73
2023/10/05 07:10:24;;;;;;;6.43;1.40;;;;;;;18.62;44.18;100542.88;4382876;32;33664;-72
2023/10/05 07:12:52;;;;;;;1.98;1.35;;;;;;;18.43;44.59;100546.47;4385922;32;33913;-74
2023/10/05 07:15:21;;;;;;;7.35;1.85;;;;;;;18.68;43.96;100546.81;4392101;32;33826;-74
2023/10/05 07:17:49;;;;;;;2.83;1.08;;;;;;;18.71;44.08;100544.66;4390071;32;33037;-74
2023/10/05 07:20:22;;;;;;;18.42;1.67;;;;;;;18.79;44.42;100544.81;4390252;32;34044;-74
2023/10/05 07:22:50;;;;;;;13.38;1.55;;;;;;;19.03;44.43;100547.00;4383933;32;33757;-71
2023/10/05 07:25:18;;;;;;;2.30;1.05;;;;;;;19.12;44.44;100542.53;4383429;32;33745;-74
2023/10/05 07:27:47;;;;;;;5.95;1.40;;;;;;;19.20;43.01;100544.53;4388291;32;33824;-74
2023/10/05 07:30:16;;;;;;;3.15;1.50;;;;;;;19.28;43.30;100544.59;4387422;32;33536;-74
2023/10/05 07:32:43;;;;;;;8.73;2.05;;;;;;;19.19;42.70;100540.94;4385843;32;34910;-70
2023/10/05 07:35:12;;;;;;;2.35;0.93;;;;;;;19.25;42.34;100545.75;4388779;32;33694;-72
2023/10/05 07:37:41;;;;;;;7.00;1.95;;;;;;;19.48;42.18;100539.91;4387967;32;33332;-72
2023/10/05 07:40:10;;;;;;;7.87;2.15;;;;;;;19.64;42.32;100548.25;4387555;32;34642;-70
2023/10/05 07:42:41;;;;;;;3.05;1.15;;;;;;;19.71;42.54;100538.50;4379393;32;34964;-70
2023/10/05 07:45:13;;;;;;;2.08;1.12;;;;;;;19.80;42.53;100533.13;4382260;32;33679;-72
2023/10/05 07:47:42;;;;;;;2.87;1.40;;;;;;;19.80;42.19;100533.13;4388032;32;33312;-71
2023/10/05 07:50:10;;;;;;;5.72;1.27;;;;;;;19.90;42.28;100533.91;4383257;32;35034;-69
2023/10/05 07:52:39;;;;;;;3.15;1.23;;;;;;;20.10;42.07;100532.75;4377541;32;34047;-71
2023/10/05 07:55:08;;;;;;;2.12;0.80;;;;;;;20.10;41.64;100540.91;4379948;32;33688;-71
2023/10/05 07:57:35;;;;;;;2.42;1.35;;;;;;;20.28;40.89;100537.28;4386145;32;34329;-71
2023/10/05 08:00:04;;;;;;;2.75;1.40;;;;;;;20.40;41.40;100545.03;4382096;32;33916;-68
2023/10/05 08:02:38;;;;;;;5.18;1.55;;;;;;;20.54;41.48;100551.78;4381783;32;32550;-70
2023/10/05 08:05:09;;;;;;;5.25;1.62;;;;;;;20.55;39.56;100549.94;4383009;32;34532;-71
2023/10/05 08:07:36;;;;;;;2.95;1.33;;;;;;;20.21;38.16;100548.78;4382560;32;33260;-70
2023/10/05 08:10:18;;;;;;;6.62;1.35;;;;;;;20.44;36.49;100551.00;4389586;32;34812;-70
2023/10/05 08:12:49;;;;;;;2.55;1.12;;;;;;;20.47;36.27;100551.53;4376551;32;34139;-71
2023/10/05 08:15:20;;;;;;;2.87;1.48;;;;;;;20.49;36.29;100556.81;4376469;32;33692;-69
2023/10/05 08:17:49;;;;;;;1.92;1.12;;;;;;;20.40;37.95;100547.75;4387796;32;32123;-70
2023/10/05 08:20:18;;;;;;;1.35;0.88;;;;;;;20.25;38.03;100550.16;4385311;32;33752;-70
2023/10/05 08:22:58;;;;;;;4.95;2.00;;;;;;;20.27;38.78;100554.63;4383829;32;34228;-71
2023/10/05 08:25:26;;;;;;;5.15;1.48;;;;;;;19.91;40.27;100543.78;4387496;32;33731;-68
2023/10/05 08:27:55;;;;;;;4.78;1.45;;;;;;;20.35;39.12;100541.06;4376100;32;34189;-70
2023/10/05 08:30:33;;;;;;;5.47;1.90;;;;;;;20.43;38.34;100544.72;4378389;32;35052;-70
2023/10/05 08:33:03;;;;;;;3.40;1.65;;;;;;;20.69;37.00;100544.75;4384723;32;35234;-71
2023/10/05 08:35:40;;;;;;;4.07;1.95;;;;;;;20.27;38.36;100547.31;4378994;32;34354;-72
2023/10/05 08:38:15;;;;;;;5.90;1.77;;;;;;;20.68;37.48;100540.31;4385395;32;34441;-71
2023/10/05 08:40:45;;;;;;;3.80;1.70;;;;;;;20.88;38.78;100540.09;4382119;32;33914;-71
2023/10/05 08:43:16;;;;;;;3.22;1.50;;;;;;;20.83;37.86;100542.44;4376089;32;35104;-72
2023/10/05 08:45:47;;;;;;;4.22;1.55;;;;;;;20.69;35.59;100539.31;4385447;32;33733;-71
2023/10/05 08:48:46;;;;;;;4.32;1.67;;;;;;;20.77;36.70;100543.06;4385295;32;34881;-70
2023/10/05 08:51:11;;;;;;;2.60;0.88;;;;;;;20.98;36.69;100546.25;4386285;32;33544;-71
2023/10/05 08:53:48;;;;;;;6.28;1.70;;;;;;;21.08;36.35;100544.25;4376637;32;35220;-72
2023/10/05 08:56:17;;;;;;;6.18;1.83;;;;;;;21.40;36.40;100543.56;4379550;32;34674;-69
2023/10/05 08:58:46;;;;;;;6.55;1.65;;;;;;;20.73;38.70;100553.44;4384355;32;33192;-70
2023/10/05 09:01:29;;;;;;;2.72;1.42;;;;;;;20.79;38.23;100546.50;4385325;32;34579;-71
2023/10/05 09:04:23;;;;;;;4.85;1.37;;;;;;;21.33;36.29;100539.78;4381326;32;33948;-71
2023/10/05 09:06:55;;;;;;;3.12;1.17;;;;;;;21.48;35.46;100545.47;4385747;32;33656;-70
2023/10/05 09:12:46;;;;;;;5.15;0.82;;;;;;;21.77;34.49;100533.28;4382242;32;34047;-72
2023/10/05 09:18:17;;;;;;;4.47;1.67;;;;;;;21.46;34.79;100533.03;4385463;32;34964;-74
2023/10/05 09:20:49;;;;;;;6.45;2.10;;;;;;;21.63;34.59;100522.00;4384749;32;33023;-71
2023/10/05 09:23:20;;;;;;;4.10;1.45;;;;;;;21.82;33.24;100520.84;4387046;32;34007;-71
2023/10/05 09:25:48;;;;;;;3.90;1.90;;;;;;;21.33;33.57;100525.31;4387264;32;33742;-71
2023/10/05 09:28:44;;;;;;;2.45;1.10;;;;;;;21.94;33.29;100521.38;4385783;32;34632;-71
2023/10/05 09:31:13;;;;;;;2.35;1.08;;;;;;;21.71;32.20;100526.62;4379536;32;34209;-70
2023/10/05 09:33:49;;;;;;;5.87;1.50;;;;;;;21.77;31.72;100523.22;4384705;32;34457;-70
2023/10/05 09:36:19;;;;;;;3.75;1.45;;;;;;;21.99;30.71;100507.22;4386506;32;34307;-69
2023/10/05 09:38:48;;;;;;;7.22;1.33;;;;;;;21.87;30.70;100510.28;4380342;32;34165;-71
2023/10/05 09:41:17;;;;;;;4.15;1.48;;;;;;;21.59;33.12;100514.34;4374680;32;33419;-71
2023/10/05 09:43:51;;;;;;;4.90;1.20;;;;;;;21.88;32.13;100516.59;4376467;32;34088;-73
2023/10/05 09:46:20;;;;;;;3.20;1.33;;;;;;;22.02;31.72;100509.59;4381847;32;34577;-69
2023/10/05 09:48:48;;;;;;;4.35;1.90;;;;;;;21.75;31.99;100510.78;4376050;32;34287;-70
2023/10/05 09:51:15;;;;;;;1.30;0.90;;;;;;;22.05;31.79;100504.69;4380418;32;34395;-71
2023/10/05 09:53:44;;;;;;;3.75;1.48;;;;;;;22.00;31.71;100504.31;4387159;32;32858;-69
2023/10/05 09:56:14;;;;;;;4.28;1.48;;;;;;;22.23;32.01;100500.94;4349770;32;33744;-70
2023/10/05 09:58:53;;;;;;;2.80;1.40;;;;;;;22.43;31.79;100504.16;4353330;32;34705;-72
2023/10/05 10:01:21;;;;;;;5.05;1.25;;;;;;;22.65;30.96;100502.56;4357507;32;33419;-68
2023/10/05 10:03:52;;;;;;;5.37;1.52;;;;;;;22.41;32.35;100496.16;4358063;32;33526;-69
2023/10/05 10:06:24;;;;;;;4.45;1.42;;;;;;;22.46;32.85;100499.19;4353375;32;33940;-69
2023/10/05 10:08:55;;;;;;;1.48;0.98;;;;;;;22.71;31.68;100493.69;4358153;32;34363;-68
2023/10/05 10:11:27;;;;;;;2.95;1.35;;;;;;;22.60;31.05;100483.12;4358519;32;33437;-70
2023/10/05 10:14:01;;;;;;;7.53;1.87;;;;;;;22.90;31.72;100479.62;4342431;32;33403;-73
2023/10/05 10:16:32;;;;;;;2.60;0.93;;;;;;;22.92;32.36;100474.84;4359286;32;33629;-72
2023/10/05 10:19:08;;;;;;;2.90;0.82;;;;;;;23.17;32.04;100472.88;4357107;32;33909;-71
2023/10/05 10:21:42;;;;;;;3.28;1.58;;;;;;;23.26;31.64;100468.22;4357031;32;32941;-72
2023/10/05 10:24:17;;;;;;;;;;;;;;;23.01;31.81;100464.75;4351904;32;34150;-71
2023/10/05 10:26:46;;;;;;;4.22;1.77;;;;;;;23.46;31.47;100463.13;4360732;32;33093;-69
2023/10/05 10:29:16;;;;;;;4.03;1.37;;;;;;;23.14;32.13;100458.72;4387331;32;33639;-69
2023/10/05 10:31:47;;;;;;;6.72;1.48;;;;;;;23.02;32.08;100453.69;4371492;32;33421;-70
2023/10/05 10:34:28;;;;;;;3.40;1.50;;;;;;;22.94;31.73;100456.44;4372238;32;34051;-66
2023/10/05 10:36:56;;;;;;;4.75;1.70;;;;;;;21.74;32.96;100449.16;4368819;32;34024;-71
2023/10/05 10:39:27;;;;;;;3.12;1.17;;;;;;;22.69;32.07;100449.34;4361605;32;33392;-69
2023/10/05 10:42:05;;;;;;;3.00;0.88;;;;;;;23.22;31.87;100447.75;4365225;32;33363;-70
2023/10/05 10:47:19;;;;;;;3.10;1.33;;;;;;;23.16;31.43;100437.56;4361235;32;34321;-70
2023/10/05 10:50:15;;;;;;;13.05;1.52;;;;;;;23.14;31.33;100429.53;4365177;32;33540;-71
2023/10/05 10:52:43;;;;;;;;;;;;;;;23.11;31.49;100431.78;4349979;32;33085;-70
2023/10/05 10:55:14;;;;;;;4.07;2.55;;;;;;;22.82;31.80;100426.94;4354369;32;35576;-69
2023/10/05 10:57:53;;;;;;;4.03;2.37;;;;;;;23.38;31.45;100417.63;4352537;32;33403;-68
2023/10/05 11:03:12;;;;;;;3.35;1.30;;;;;;;23.67;30.86;100416.87;4365052;32;32984;-71
2023/10/05 11:05:47;;;;;;;2.70;1.40;;;;;;;23.39;30.98;100411.13;4367381;32;33807;-71
2023/10/05 11:08:20;;;;;;;2.75;1.15;;;;;;;23.67;31.44;100405.94;4370935;32;33939;-71
2023/10/05 11:10:54;;;;;;;4.20;1.52;;;;;;;23.98;30.33;100413.22;4372229;32;34602;-70
2023/10/05 11:13:24;;;;;;;3.12;1.45;;;;;;;23.78;30.98;100399.22;4366364;32;33425;-70
2023/10/05 11:15:59;;;;;;;3.37;1.50;;;;;;;23.49;31.84;100399.94;4367896;32;33787;-71
2023/10/05 11:18:31;;;;;;;2.50;1.08;;;;;;;23.81;30.75;100387.91;4361391;32;34189;-70
2023/10/05 11:21:18;;;;;;;3.37;1.10;;;;;;;23.67;30.96;100378.63;4371642;32;33948;-70
2023/10/05 11:23:56;;;;;;;2.15;0.90;;;;;;;23.53;31.21;100389.50;4361122;32;34334;-70
2023/10/05 11:26:35;;;;;;;3.62;1.10;;;;;;;23.87;31.11;100378.12;4365259;32;33499;-70
2023/10/05 11:29:20;;;;;;;3.97;1.45;;;;;;;23.75;31.57;100376.88;4364254;32;34168;-70
2023/10/05 11:31:52;;;;;;;3.70;1.40;;;;;;;23.87;31.50;100373.50;4368150;32;34695;-70
2023/10/05 11:34:42;;;;;;;4.00;1.85;;;;;;;23.83;31.05;100376.81;4361359;32;33408;-69
2023/10/05 11:37:32;;;;;;;2.92;1.37;;;;;;;23.62;31.75;100367.38;4363074;32;34009;-71
2023/10/05 11:40:01;;;;;;;3.75;1.42;;;;;;;23.89;31.01;100360.50;4370905;32;35070;-71
2023/10/05 11:42:34;;;;;;;3.03;0.95;;;;;;;23.63;31.11;100358.16;4363825;32;34078;-71
2023/10/05 11:45:12;;;;;;;2.80;1.20;;;;;;;23.49;31.35;100365.28;4362240;32;33851;-71
2023/10/05 11:47:46;;;;;;;4.57;1.87;;;;;;;23.59;31.07;100359.56;4360002;32;33843;-67
2023/10/05 11:50:24;;;;;;;2.80;1.00;;;;;;;23.31;32.22;100345.63;4365748;32;33253;-71
2023/10/05 11:52:53;;;;;;;7.25;1.50;;;;;;;23.33;32.16;100346.28;4367724;32;33611;-67
2023/10/05 11:55:21;;;;;;;3.80;1.50;;;;;;;23.66;32.54;100337.81;4374043;32;33307;-69
2023/10/05 11:57:49;;;;;;;3.70;1.40;;;;;;;23.09;32.57;100341.87;4372049;32;33860;-71
2023/10/05 12:00:18;;;;;;;4.53;1.40;;;;;;;23.60;31.90;100344.88;4368336;32;33839;-68
2023/10/05 12:02:46;;;;;;;3.28;0.93;;;;;;;23.80;31.71;100337.03;4362341;32;34930;-71
2023/10/05 12:05:14;;;;;;;3.05;1.15;;;;;;;24.17;30.92;100340.72;4374622;32;34576;-68
2023/10/05 12:07:45;;;;;;;2.70;0.60;;;;;;;24.30;30.95;100343.66;4366498;32;33642;-67
2023/10/05 12:10:14;;;;;;;3.87;1.52;;;;;;;24.07;31.00;100335.53;4370656;32;34339;-66
2023/10/05 12:12:43;;;;;;;2.12;1.05;;;;;;;24.30;30.44;100335.44;4365401;32;34057;-66
2023/10/05 12:15:17;;;;;;;4.37;1.42;;;;;;;24.39;30.68;100344.38;4366404;32;34019;-66
2023/10/05 12:17:49;;;;;;;4.60;1.33;;;;;;;24.28;31.31;100332.03;4373329;32;35090;-66
2023/10/05 12:20:18;;;;;;;5.07;1.80;;;;;;;24.27;31.45;100335.84;4369545;32;34693;-68
2023/10/05 12:22:49;;;;;;;3.72;1.80;;;;;;;23.92;32.65;100338.28;4371227;32;34908;-67
2023/10/05 12:25:24;;;;;;;2.92;1.23;;;;;;;24.01;31.35;100327.22;4366583;32;33331;-67
2023/10/05 12:27:51;;;;;;;4.72;1.65;;;;;;;24.25;30.74;100324.22;4361216;32;33574;-69
2023/10/05 12:30:21;;;;;;;4.12;1.60;;;;;;;24.32;31.28;100311.47;4367788;32;35116;-69